Time;durP1;ratioP1;P1;durP2;ratioP2;P2;SDS_P1;SDS_P2;PMS_P1;PMS_P2;Temp;Humidity;BMP_temperature;BMP_pressure;BME280_temperature;BME280_humidity;BME280_pressure;Samples;Min_cycle;Max_cycle;Signal;HPM_P1;HPM_P2
2023/10/29 00:00:30;;;;;;;;;;;20.90;69.80;;;;;;5001909;28;1910;-70
2023/10/29 00:02:55;;;;;;;;;;;20.80;69.70;;;;;;5026080;28;1464;-70
2023/10/29 00:05:21;;;;;;;;;;;20.80;69.80;;;;;;5026273;28;1159;-70
2023/10/29 00:07:46;;;;;;;;;;;20.80;69.80;;;;;;5002470;28;1532;-70
2023/10/29 00:10:12;;;;;;;;;;;20.80;69.80;;;;;;5009522;28;1399;-70
2023/10/29 00:12:37;;;;;;;;;;;20.80;69.90;;;;;;5025372;28;1328;-70
2023/10/29 00:15:04;;;;;;;;;;;20.80;69.80;;;;;;5026184;28;1344;-70
2023/10/29 00:17:29;;;;;;;;;;;20.80;69.90;;;;;;5026249;28;1154;-70
2023/10/29 00:19:55;;;;;;;;;;;20.80;69.90;;;;;;5001665;28;1312;-70
2023/10/29 00:22:20;;;;;;;;;;;20.80;69.90;;;;;;5027025;28;1906;-70
2023/10/29 00:24:46;;;;;;;;;;;20.80;69.90;;;;;;5026223;28;1415;-69
2023/10/29 00:27:12;;;;;;;;;;;20.80;69.90;;;;;;5005164;28;1556;-70
2023/10/29 00:29:38;;;;;;;;;;;20.80;69.90;;;;;;5027476;28;1548;-70
2023/10/29 00:32:03;;;;;;;;;;;20.80;70.00;;;;;;5025683;28;1405;-70
2023/10/29 00:34:29;;;;;;;;;;;20.80;70.00;;;;;;5026020;28;1305;-69
2023/10/29 00:36:54;;;;;;;;;;;20.80;70.00;;;;;;5024972;28;1902;-70
2023/10/29 00:39:20;;;;;;;;;;;20.80;70.00;;;;;;5006799;28;1645;-69
2023/10/29 00:41:45;;;;;;;;;;;20.70;70.00;;;;;;5025341;28;1910;-70
2023/10/29 00:44:10;;;;;;;;;;;20.80;70.00;;;;;;5028185;28;1936;-70
2023/10/29 00:46:39;;;;;;;;;;;20.70;70.00;;;;;;5029876;28;1534;-70
2023/10/29 00:49:04;;;;;;;;;;;20.70;70.00;;;;;;5011097;28;1462;-70
2023/10/29 00:51:30;;;;;;;;;;;20.70;70.00;;;;;;5030894;28;1409;-70
2023/10/29 00:53:55;;;;;;;;;;;20.70;70.10;;;;;;5009391;28;1507;-70
2023/10/29 00:56:21;;;;;;;;;;;20.70;70.10;;;;;;5008884;28;1241;-70
2023/10/29 00:58:47;;;;;;;;;;;20.70;70.10;;;;;;5010742;28;1454;-70
2023/10/29 01:01:12;;;;;;;;;;;20.70;70.10;;;;;;5009597;28;1899;-70
2023/10/29 01:03:37;;;;;;;;;;;20.70;70.20;;;;;;5032807;28;1015;-70
2023/10/29 01:06:03;;;;;;;;;;;20.70;70.20;;;;;;5029002;28;1531;-69
2023/10/29 01:08:29;;;;;;;;;;;20.70;70.10;;;;;;5009811;28;1606;-70
2023/10/29 01:10:55;;;;;;;;;;;20.70;70.20;;;;;;5011683;28;1484;-70
2023/10/29 01:13:20;;;;;;;;;;;20.70;70.20;;;;;;5028120;28;1550;-70
2023/10/29 01:15:46;;;;;;;;;;;20.70;70.20;;;;;;5029212;28;1445;-69
2023/10/29 01:18:11;;;;;;;;;;;20.70;70.20;;;;;;5029708;28;1518;-68
2023/10/29 01:20:38;;;;;;;;;;;20.70;70.20;;;;;;5029198;28;1966;-69
2023/10/29 01:23:04;;;;;;;;;;;20.70;70.30;;;;;;5030641;28;1399;-68
2023/10/29 01:25:29;;;;;;;;;;;20.70;70.30;;;;;;5009566;28;1408;-70
2023/10/29 01:27:56;;;;;;;;;;;20.70;70.30;;;;;;5029606;28;1362;-69
2023/10/29 01:30:21;;;;;;;;;;;20.70;70.30;;;;;;5029811;28;1522;-68
2023/10/29 01:32:47;;;;;;;;;;;20.70;70.30;;;;;;5028796;28;1528;-69
2023/10/29 01:35:12;;;;;;;;;;;20.70;70.30;;;;;;5028440;28;1343;-70
2023/10/29 01:37:37;;;;;;;;;;;20.60;70.30;;;;;;5028708;28;1466;-68
2023/10/29 01:40:03;;;;;;;;;;;20.70;71.10;;;;;;5027665;28;1373;-69
2023/10/29 01:42:29;;;;;;;;;;;20.70;70.40;;;;;;5029183;28;1906;-69
2023/10/29 01:44:55;;;;;;;;;;;20.60;70.30;;;;;;5030610;28;1371;-69
2023/10/29 01:47:20;;;;;;;;;;;20.60;70.40;;;;;;5028645;28;1324;-68
2023/10/29 01:49:46;;;;;;;;;;;20.60;70.40;;;;;;5009330;28;1249;-71
2023/10/29 01:52:11;;;;;;;;;;;20.60;70.40;;;;;;5007834;28;1648;-70
2023/10/29 01:54:37;;;;;;;;;;;20.60;70.40;;;;;;5028851;28;1332;-70
2023/10/29 01:57:02;;;;;;;;;;;20.60;70.40;;;;;;5010498;28;1383;-70
2023/10/29 01:59:28;;;;;;;;;;;20.60;70.40;;;;;;5029493;28;1487;-70
2023/10/29 02:01:54;;;;;;;;;;;20.60;70.40;;;;;;5027957;28;1965;-71
2023/10/29 02:04:26;;;;;;;;;;;20.60;70.50;;;;;;5030375;28;1451;-70
2023/10/29 02:06:52;;;;;;;;;;;20.60;70.50;;;;;;5028586;28;1475;-71
2023/10/29 02:09:18;;;;;;;;;;;20.60;70.50;;;;;;5029320;28;1287;-69
2023/10/29 02:11:44;;;;;;;;;;;20.60;70.50;;;;;;5028421;28;1548;-70
2023/10/29 02:14:09;;;;;;;;;;;20.60;70.50;;;;;;5028300;28;1533;-70
2023/10/29 02:16:34;;;;;;;;;;;20.60;70.50;;;;;;5028329;28;1311;-70
2023/10/29 02:19:00;;;;;;;;;;;20.60;70.60;;;;;;5027420;28;1383;-70
2023/10/29 02:21:25;;;;;;;;;;;20.60;70.50;;;;;;5009763;28;1910;-71
2023/10/29 02:23:52;;;;;;;;;;;20.60;70.60;;;;;;5027332;28;1340;-71
2023/10/29 02:26:18;;;;;;;;;;;20.60;70.50;;;;;;5028920;28;1427;-71
2023/10/29 02:28:43;;;;;;;;;;;20.60;70.60;;;;;;5013532;28;1486;-71
2023/10/29 02:31:29;;;;;;;;;;;20.50;70.50;;;;;;5027745;28;1415;-70
2023/10/29 02:33:54;;;;;;;;;;;20.50;70.50;;;;;;5027511;28;1340;-71
2023/10/29 02:36:20;;;;;;;;;;;20.50;70.60;;;;;;5005338;28;1359;-70
2023/10/29 02:38:45;;;;;;;;;;;20.60;70.60;;;;;;5027974;28;1147;-70
2023/10/29 02:41:11;;;;;;;;;;;20.50;70.60;;;;;;5028752;28;1995;-70
2023/10/29 02:43:40;;;;;;;;;;;20.50;70.60;;;;;;5010752;28;1512;-70
2023/10/29 02:46:05;;;;;;;;;;;20.50;70.60;;;;;;5028128;28;1568;-70
2023/10/29 02:48:31;;;;;;;;;;;20.50;70.70;;;;;;5029646;28;1297;-70
2023/10/29 02:50:56;;;;;;;;;;;20.50;70.60;;;;;;5026963;28;2061;-71
2023/10/29 02:53:22;;;;;;;;;;;20.50;70.70;;;;;;5027150;28;1869;-71
2023/10/29 02:55:47;;;;;;;;;;;20.50;70.70;;;;;;5009246;28;1363;-72
2023/10/29 02:58:13;;;;;;;;;;;20.50;70.70;;;;;;5027685;28;1387;-71
2023/10/29 03:00:38;;;;;;;;;;;20.50;70.70;;;;;;5010535;28;1979;-70
2023/10/29 03:03:04;;;;;;;;;;;20.50;70.70;;;;;;5028392;28;1802;-70
2023/10/29 03:05:29;;;;;;;;;;;20.50;70.70;;;;;;5010262;28;1336;-71
2023/10/29 03:07:55;;;;;;;;;;;20.50;70.70;;;;;;5028177;28;1543;-70
2023/10/29 03:10:20;;;;;;;;;;;20.50;70.70;;;;;;5009035;28;1435;-70
2023/10/29 03:12:46;;;;;;;;;;;20.50;70.80;;;;;;5029458;28;1439;-70
2023/10/29 03:15:12;;;;;;;;;;;20.50;70.70;;;;;;5027511;28;1305;-71
2023/10/29 03:17:37;;;;;;;;;;;20.50;70.70;;;;;;5027935;28;1403;-72
2023/10/29 03:20:03;;;;;;;;;;;20.50;70.70;;;;;;5028471;28;1503;-70
2023/10/29 03:22:28;;;;;;;;;;;20.50;70.80;;;;;;5028486;28;1965;-71
2023/10/29 03:24:54;;;;;;;;;;;20.50;70.80;;;;;;5027421;28;1363;-72
2023/10/29 03:27:19;;;;;;;;;;;20.50;70.80;;;;;;5027710;28;1614;-71
2023/10/29 03:29:45;;;;;;;;;;;20.50;70.80;;;;;;5005961;28;1681;-72
2023/10/29 03:32:10;;;;;;;;;;;20.50;70.80;;;;;;5009591;28;1403;-73
2023/10/29 03:34:36;;;;;;;;;;;20.40;70.70;;;;;;5027782;28;1320;-71
2023/10/29 03:37:01;;;;;;;;;;;20.40;70.80;;;;;;5026431;28;1519;-71
2023/10/29 03:39:29;;;;;;;;;;;20.50;70.80;;;;;;5028570;28;2001;-71
2023/10/29 03:41:54;;;;;;;;;;;20.50;70.80;;;;;;5028483;28;1905;-71
2023/10/29 03:44:20;;;;;;;;;;;20.40;70.70;;;;;;5027026;28;1249;-71
2023/10/29 03:46:49;;;;;;;;;;;20.40;70.70;;;;;;5028741;28;1339;-71
2023/10/29 03:49:16;;;;;;;;;;;20.40;70.80;;;;;;5010330;28;1731;-70
2023/10/29 03:51:42;;;;;;;;;;;20.40;70.80;;;;;;5010396;28;1363;-70
2023/10/29 03:54:08;;;;;;;;;;;20.50;70.80;;;;;;5026804;28;1304;-71
2023/10/29 03:56:33;;;;;;;;;;;20.40;70.80;;;;;;4993687;28;1403;-71
2023/10/29 03:58:59;;;;;;;;;;;20.40;70.80;;;;;;5027341;28;1459;-70
2023/10/29 04:01:24;;;;;;;;;;;20.40;70.80;;;;;;5025559;28;1898;-70
2023/10/29 04:03:50;;;;;;;;;;;20.40;70.80;;;;;;5027138;28;1313;-71
2023/10/29 04:06:15;;;;;;;;;;;20.40;70.80;;;;;;5006506;28;1428;-71
2023/10/29 04:08:41;;;;;;;;;;;20.40;70.80;;;;;;5027319;28;1364;-70
2023/10/29 04:11:06;;;;;;;;;;;20.40;70.80;;;;;;5026915;28;1422;-70
2023/10/29 04:13:32;;;;;;;;;;;20.40;70.80;;;;;;5005814;28;1431;-69
2023/10/29 04:15:57;;;;;;;;;;;20.40;70.80;;;;;;5025485;28;1478;-71
2023/10/29 04:18:27;;;;;;;;;;;20.40;70.80;;;;;;5029113;28;1284;-70
2023/10/29 04:20:53;;;;;;;;;;;20.40;70.90;;;;;;5011293;28;1963;-70
2023/10/29 04:23:19;;;;;;;;;;;20.40;70.90;;;;;;5028807;28;1313;-70
2023/10/29 04:25:44;;;;;;;;;;;20.40;70.90;;;;;;5030150;28;1217;-70
2023/10/29 04:28:10;;;;;;;;;;;20.40;70.90;;;;;;5030459;28;1317;-71
2023/10/29 04:30:35;;;;;;;;;;;20.40;70.90;;;;;;5031480;28;1678;-70
2023/10/29 04:33:01;;;;;;;;;;;20.40;70.90;;;;;;5013933;28;1900;-73
2023/10/29 04:35:26;;;;;;;;;;;20.40;70.90;;;;;;5022489;28;1892;-73
2023/10/29 04:37:52;;;;;;;;;;;20.40;70.90;;;;;;5021695;28;4558;-72
2023/10/29 04:40:17;;;;;;;;;;;20.40;70.90;;;;;;5020490;28;4511;-73
2023/10/29 04:42:43;;;;;;;;;;;20.40;70.90;;;;;;5029373;28;4227;-73
2023/10/29 04:45:11;;;;;;;;;;;20.40;71.00;;;;;;5029717;28;1509;-73
2023/10/29 04:47:36;;;;;;;;;;;20.40;70.90;;;;;;5030322;28;1017;-72
2023/10/29 04:50:02;;;;;;;;;;;20.40;70.90;;;;;;4989717;28;1392;-72
2023/10/29 04:52:27;;;;;;;;;;;20.40;70.90;;;;;;5019820;28;4418;-72
2023/10/29 04:54:53;;;;;;;;;;;20.40;71.00;;;;;;5011506;28;1372;-70
2023/10/29 04:57:20;;;;;;;;;;;20.40;71.00;;;;;;5008790;28;955;-71
2023/10/29 04:59:46;;;;;;;;;;;20.40;70.90;;;;;;5008879;28;1264;-71
2023/10/29 05:02:11;;;;;;;;;;;20.30;70.90;;;;;;5028179;28;1910;-71
2023/10/29 05:04:36;;;;;;;;;;;20.30;70.90;;;;;;5008649;28;915;-71
2023/10/29 05:07:02;;;;;;;;;;;20.40;70.90;;;;;;5028825;28;969;-72
2023/10/29 05:09:27;;;;;;;;;;;20.40;70.90;;;;;;5030105;28;1345;-72
2023/10/29 05:11:53;;;;;;;;;;;20.40;70.90;;;;;;5029010;28;1019;-70
2023/10/29 05:14:18;;;;;;;;;;;20.40;70.80;;;;;;5028725;28;997;-72
2023/10/29 05:16:44;;;;;;;;;;;20.40;70.80;;;;;;5028309;28;1362;-71
2023/10/29 05:19:09;;;;;;;;;;;20.50;70.70;;;;;;5029644;28;1788;-70
2023/10/29 05:21:35;;;;;;;;;;;20.50;70.60;;;;;;5030839;28;1906;-69
2023/10/29 05:24:02;;;;;;;;;;;20.60;70.50;;;;;;5029837;28;1436;-69
2023/10/29 05:26:28;;;;;;;;;;;20.70;70.40;;;;;;5029770;28;1296;-70
2023/10/29 05:28:53;;;;;;;;;;;20.80;70.20;;;;;;5011167;28;1335;-70
2023/10/29 05:31:19;;;;;;;;;;;20.90;70.00;;;;;;5029181;28;1395;-70
2023/10/29 05:33:44;;;;;;;;;;;21.00;69.70;;;;;;5030367;28;1338;-69
2023/10/29 05:36:09;;;;;;;;;;;21.10;69.40;;;;;;5007786;28;1318;-69
2023/10/29 05:38:35;;;;;;;;;;;21.10;69.40;;;;;;5029985;28;1251;-69
2023/10/29 05:41:00;;;;;;;;;;;21.20;68.90;;;;;;5029960;28;2247;-69
2023/10/29 05:43:26;;;;;;;;;;;21.30;68.80;;;;;;5006648;28;1371;-69
2023/10/29 05:45:51;;;;;;;;;;;21.30;68.50;;;;;;5026121;28;1432;-70
2023/10/29 05:48:17;;;;;;;;;;;21.40;68.30;;;;;;5027698;28;1316;-70
2023/10/29 05:50:42;;;;;;;;;;;21.50;68.10;;;;;;5029668;28;1447;-70
2023/10/29 05:53:08;;;;;;;;;;;21.50;67.80;;;;;;5029642;28;1408;-70
2023/10/29 05:55:33;;;;;;;;;;;21.60;67.70;;;;;;5009208;28;1143;-70
2023/10/29 05:57:59;;;;;;;;;;;21.60;67.50;;;;;;5006471;28;1448;-71
2023/10/29 06:00:25;;;;;;;;;;;21.60;67.30;;;;;;5027408;28;1575;-70
2023/10/29 06:02:50;;;;;;;;;;;21.70;67.10;;;;;;5007757;28;1992;-70
2023/10/29 06:05:16;;;;;;;;;;;21.80;67.10;;;;;;5028503;28;1886;-70
2023/10/29 06:07:43;;;;;;;;;;;21.80;66.90;;;;;;5028981;28;1061;-70
2023/10/29 06:10:13;;;;;;;;;;;21.80;66.70;;;;;;5007571;28;1403;-69
2023/10/29 06:12:39;;;;;;;;;;;21.90;66.70;;;;;;5029408;28;1191;-70
2023/10/29 06:15:04;;;;;;;;;;;21.90;66.50;;;;;;5028156;28;1361;-70
2023/10/29 06:17:30;;;;;;;;;;;21.90;66.40;;;;;;5027907;28;962;-69
2023/10/29 06:19:55;;;;;;;;;;;22.00;66.40;;;;;;5028906;28;1408;-68
2023/10/29 06:22:21;;;;;;;;;;;22.00;66.30;;;;;;5029193;28;1890;-69
2023/10/29 06:24:46;;;;;;;;;;;22.00;66.20;;;;;;5029314;28;1515;-69
2023/10/29 06:27:12;;;;;;;;;;;22.10;66.20;;;;;;5028553;28;1623;-68
2023/10/29 06:29:38;;;;;;;;;;;22.10;66.00;;;;;;5029457;28;1405;-69
2023/10/29 06:32:04;;;;;;;;;;;22.10;66.00;;;;;;5028684;28;1105;-69
2023/10/29 06:34:32;;;;;;;;;;;22.20;66.00;;;;;;5029405;28;1333;-70
2023/10/29 06:36:58;;;;;;;;;;;22.20;65.90;;;;;;5002411;28;2166;-69
2023/10/29 06:39:23;;;;;;;;;;;22.10;65.80;;;;;;5027640;28;1345;-70
2023/10/29 06:41:49;;;;;;;;;;;22.20;65.80;;;;;;5026308;28;1902;-70
2023/10/29 06:44:14;;;;;;;;;;;22.20;65.70;;;;;;5026983;28;1160;-69
2023/10/29 06:46:39;;;;;;;;;;;22.20;65.70;;;;;;5006933;28;1318;-69
2023/10/29 06:49:05;;;;;;;;;;;22.30;65.70;;;;;;5026572;28;1449;-69
2023/10/29 06:51:30;;;;;;;;;;;22.30;65.60;;;;;;5028785;28;1316;-69
2023/10/29 06:53:56;;;;;;;;;;;22.30;65.60;;;;;;5026334;28;1420;-69
2023/10/29 06:56:22;;;;;;;;;;;22.30;65.50;;;;;;5028074;28;1392;-70
2023/10/29 06:58:47;;;;;;;;;;;22.30;65.50;;;;;;5028147;28;1674;-70
2023/10/29 07:01:13;;;;;;;;;;;22.30;65.50;;;;;;5025489;28;1910;-72
2023/10/29 07:03:39;;;;;;;;;;;22.30;65.40;;;;;;5028256;28;1344;-70
2023/10/29 07:06:05;;;;;;;;;;;22.40;65.40;;;;;;5027772;28;1382;-70
2023/10/29 07:08:31;;;;;;;;;;;22.40;65.50;;;;;;5026656;28;1319;-71
2023/10/29 07:10:57;;;;;;;;;;;22.40;65.50;;;;;;5027737;28;1470;-71
2023/10/29 07:13:22;;;;;;;;;;;22.40;65.50;;;;;;5027439;28;1535;-72
2023/10/29 07:15:48;;;;;;;;;;;22.40;65.40;;;;;;5008004;28;1593;-72
2023/10/29 07:18:13;;;;;;;;;;;22.40;65.40;;;;;;5010239;28;1457;-71
2023/10/29 07:20:39;;;;;;;;;;;22.40;65.30;;;;;;5023977;28;1531;-72
2023/10/29 07:23:04;;;;;;;;;;;22.40;65.30;;;;;;5027060;28;1955;-71
2023/10/29 07:25:29;;;;;;;;;;;22.40;65.40;;;;;;5009784;28;1715;-73
2023/10/29 07:27:55;;;;;;;;;;;22.40;65.30;;;;;;5027063;28;1424;-71
2023/10/29 07:30:20;;;;;;;;;;;22.50;65.30;;;;;;5006412;28;1527;-70
2023/10/29 07:32:46;;;;;;;;;;;22.50;65.30;;;;;;5006053;28;1214;-71
2023/10/29 07:35:11;;;;;;;;;;;22.50;65.40;;;;;;5023543;28;1485;-70
2023/10/29 07:37:37;;;;;;;;;;;22.50;65.20;;;;;;5027949;28;1310;-73
2023/10/29 07:40:02;;;;;;;;;;;22.50;65.20;;;;;;5026405;28;1435;-72
2023/10/29 07:42:28;;;;;;;;;;;22.50;65.20;;;;;;5027230;28;1957;-70
2023/10/29 07:44:53;;;;;;;;;;;22.50;65.10;;;;;;5026244;28;1459;-69
2023/10/29 07:47:19;;;;;;;;;;;22.50;65.10;;;;;;5027852;28;1590;-70
2023/10/29 07:49:44;;;;;;;;;;;22.50;65.10;;;;;;5028884;28;1558;-71
2023/10/29 07:52:13;;;;;;;;;;;22.50;65.10;;;;;;5025519;28;1382;-71
2023/10/29 07:54:40;;;;;;;;;;;22.60;65.10;;;;;;5025538;28;1024;-72
2023/10/29 07:57:05;;;;;;;;;;;22.60;65.10;;;;;;5022899;28;1952;-72
2023/10/29 07:59:31;;;;;;;;;;;22.60;65.10;;;;;;5027781;28;2281;-71
2023/10/29 08:01:57;;;;;;;;;;;22.60;65.00;;;;;;5026210;28;1969;-71
2023/10/29 08:04:22;;;;;;;;;;;22.60;65.00;;;;;;5010114;28;1669;-72
2023/10/29 08:06:48;;;;;;;;;;;22.60;65.00;;;;;;5027155;28;1498;-72
2023/10/29 08:09:13;;;;;;;;;;;22.60;65.00;;;;;;5009864;28;1632;-72
2023/10/29 08:11:39;;;;;;;;;;;22.60;65.00;;;;;;5027857;28;1262;-71
2023/10/29 08:14:04;;;;;;;;;;;22.60;64.90;;;;;;5027111;28;1287;-70
2023/10/29 08:16:30;;;;;;;;;;;22.60;64.90;;;;;;5009604;28;1607;-71
2023/10/29 08:18:55;;;;;;;;;;;22.60;64.90;;;;;;5026421;28;1315;-71
2023/10/29 08:21:21;;;;;;;;;;;22.70;65.00;;;;;;5025641;28;1898;-71
2023/10/29 08:23:46;;;;;;;;;;;22.70;65.00;;;;;;5026009;28;1266;-72
2023/10/29 08:26:12;;;;;;;;;;;22.70;64.90;;;;;;5025722;28;1439;-72
2023/10/29 08:28:37;;;;;;;;;;;22.70;64.80;;;;;;5027324;28;1344;-71
2023/10/29 08:31:03;;;;;;;;;;;22.70;64.90;;;;;;5024258;28;1385;-71
2023/10/29 08:33:28;;;;;;;;;;;22.70;64.90;;;;;;4991039;28;1410;-72
2023/10/29 08:35:54;;;;;;;;;;;22.70;64.80;;;;;;5024677;28;1424;-72
2023/10/29 08:38:20;;;;;;;;;;;22.70;64.90;;;;;;5025040;28;1462;-71
2023/10/29 08:40:46;;;;;;;;;;;22.70;64.90;;;;;;5002431;28;1890;-71
2023/10/29 08:43:11;;;;;;;;;;;22.70;64.90;;;;;;5025276;28;1496;-71
2023/10/29 08:45:37;;;;;;;;;;;22.70;64.90;;;;;;5026616;28;1840;-72
2023/10/29 08:48:02;;;;;;;;;;;22.70;64.90;;;;;;5025822;28;1598;-72
2023/10/29 08:50:29;;;;;;;;;;;22.70;65.00;;;;;;5024511;28;1443;-72
2023/10/29 08:52:54;;;;;;;;;;;22.60;65.00;;;;;;5007979;28;1472;-72
2023/10/29 08:55:20;;;;;;;;;;;22.60;65.10;;;;;;5025242;28;1433;-72
2023/10/29 08:57:46;;;;;;;;;;;22.60;65.10;;;;;;5026388;28;1234;-72
2023/10/29 09:00:12;;;;;;;;;;;22.60;65.20;;;;;;5025317;28;1276;-72
2023/10/29 09:02:37;;;;;;;;;;;22.60;65.10;;;;;;5026118;28;1902;-73
2023/10/29 09:05:03;;;;;;;;;;;22.60;65.20;;;;;;5012274;28;1436;-72
2023/10/29 09:07:28;;;;;;;;;;;22.60;65.20;;;;;;5028373;28;1305;-73
2023/10/29 09:09:54;;;;;;;;;;;22.60;65.20;;;;;;5029686;28;1497;-73
2023/10/29 09:12:22;;;;;;;;;;;22.60;65.30;;;;;;5030686;28;1718;-72
2023/10/29 09:14:48;;;;;;;;;;;22.60;65.30;;;;;;5030257;28;1233;-73
2023/10/29 09:17:13;;;;;;;;;;;22.60;65.30;;;;;;5029165;28;1378;-73
2023/10/29 09:19:39;;;;;;;;;;;22.60;65.30;;;;;;5015838;28;1511;-73
2023/10/29 09:22:04;;;;;;;;;;;22.60;65.40;;;;;;5029519;28;1947;-72
2023/10/29 09:24:30;;;;;;;;;;;22.60;65.30;;;;;;5029842;28;1216;-74
2023/10/29 09:26:56;;;;;;;;;;;22.60;65.30;;;;;;5026032;28;1511;-72
2023/10/29 09:29:23;;;;;;;;;;;22.60;65.30;;;;;;5028826;28;1405;-74
2023/10/29 09:31:48;;;;;;;;;;;22.60;65.30;;;;;;5008800;28;1394;-73
2023/10/29 09:34:14;;;;;;;;;;;22.60;65.40;;;;;;5029465;28;1542;-74
2023/10/29 09:36:39;;;;;;;;;;;22.60;65.30;;;;;;5028852;28;1455;-74
2023/10/29 09:39:05;;;;;;;;;;;22.60;65.30;;;;;;5002118;28;1546;-74
2023/10/29 09:41:31;;;;;;;;;;;22.60;65.30;;;;;;5011239;28;1902;-74
2023/10/29 09:43:57;;;;;;;;;;;22.60;65.30;;;;;;5029755;28;1671;-74
2023/10/29 09:46:23;;;;;;;;;;;22.60;65.30;;;;;;5010725;28;1435;-74
2023/10/29 09:48:49;;;;;;;;;;;22.60;65.40;;;;;;5009262;28;1574;-74
2023/10/29 09:51:15;;;;;;;;;;;22.60;65.40;;;;;;5007765;28;1374;-74
2023/10/29 09:53:40;;;;;;;;;;;22.60;65.40;;;;;;4995584;28;1389;-74
2023/10/29 09:56:09;;;;;;;;;;;22.60;65.40;;;;;;5008981;28;1391;-74
2023/10/29 09:58:35;;;;;;;;;;;22.50;65.40;;;;;;5005623;28;1462;-74
2023/10/29 10:01:03;;;;;;;;;;;22.50;65.40;;;;;;5007294;28;1899;-72
2023/10/29 10:03:29;;;;;;;;;;;22.50;66.10;;;;;;5007994;28;1376;-73
2023/10/29 10:05:55;;;;;;;;;;;22.50;65.40;;;;;;5029475;28;1430;-73
2023/10/29 10:08:27;;;;;;;;;;;22.50;65.50;;;;;;5007334;28;1659;-72
2023/10/29 10:10:53;;;;;;;;;;;22.50;65.50;;;;;;5008484;28;1555;-73
2023/10/29 10:13:18;;;;;;;;;;;22.50;65.50;;;;;;5028108;28;1684;-73
2023/10/29 10:15:44;;;;;;;;;;;22.50;65.60;;;;;;5028046;28;1431;-72
2023/10/29 10:18:11;;;;;;;;;;;22.50;65.60;;;;;;5010521;28;1489;-73
2023/10/29 10:20:36;;;;;;;;;;;22.50;65.60;;;;;;5011145;28;1396;-73
2023/10/29 10:23:03;;;;;;;;;;;22.50;65.60;;;;;;5005754;28;1968;-73
2023/10/29 10:25:28;;;;;;;;;;;22.50;65.70;;;;;;5012283;28;1499;-73
2023/10/29 10:27:55;;;;;;;;;;;22.50;65.70;;;;;;5007615;28;1357;-72
2023/10/29 10:30:24;;;;;;;;;;;22.50;65.70;;;;;;5028719;28;1814;-73
2023/10/29 10:32:49;;;;;;;;;;;22.40;65.70;;;;;;5026565;28;1323;-73
2023/10/29 10:35:15;;;;;;;;;;;22.40;65.80;;;;;;5028250;28;1354;-73
2023/10/29 10:37:56;;;;;;;;;;;22.40;66.20;;;;;;5007667;28;1575;-73
2023/10/29 10:40:26;;;;;;;;;;;22.40;65.90;;;;;;5005388;28;1881;-76
2023/10/29 10:42:55;;;;;;;;;;;22.40;66.00;;;;;;5008189;28;1955;-73
2023/10/29 10:45:26;;;;;;;;;;;22.40;66.10;;;;;;5028978;28;1404;-73
2023/10/29 10:47:54;;;;;;;;;;;22.30;66.10;;;;;;5028170;28;1342;-75
2023/10/29 10:50:20;;;;;;;;;;;22.30;66.10;;;;;;5029769;28;1915;-75
2023/10/29 10:52:46;;;;;;;;;;;22.30;66.20;;;;;;4991225;28;1446;-74
2023/10/29 10:55:11;;;;;;;;;;;22.30;66.30;;;;;;4994195;28;1555;-73
2023/10/29 10:57:37;;;;;;;;;;;22.20;66.30;;;;;;5009368;28;1451;-73
2023/10/29 11:00:05;;;;;;;;;;;22.20;66.40;;;;;;5008952;28;1561;-73
2023/10/29 11:02:32;;;;;;;;;;;22.20;66.50;;;;;;5028538;28;1898;-73
2023/10/29 11:04:57;;;;;;;;;;;22.20;66.50;;;;;;5006109;28;1415;-73
2023/10/29 11:07:23;;;;;;;;;;;22.20;66.60;;;;;;5027762;28;1555;-73
2023/10/29 11:09:48;;;;;;;;;;;22.10;66.60;;;;;;5006454;28;1485;-73
2023/10/29 11:12:14;;;;;;;;;;;22.10;66.70;;;;;;5027885;28;1506;-72
2023/10/29 11:14:39;;;;;;;;;;;22.10;66.80;;;;;;5008787;28;1486;-73
2023/10/29 11:17:05;;;;;;;;;;;22.00;66.80;;;;;;5006716;28;1415;-72
2023/10/29 11:19:39;;;;;;;;;;;22.00;66.90;;;;;;5027568;28;1543;-72
2023/10/29 11:22:12;;;;;;;;;;;22.00;66.90;;;;;;5003253;28;1910;-72
2023/10/29 11:24:37;;;;;;;;;;;22.00;67.10;;;;;;5028433;28;1564;-72
2023/10/29 11:27:33;;;;;;;;;;;22.00;67.10;;;;;;5026350;28;1676;-73
2023/10/29 11:30:12;;;;;;;;;;;22.00;67.10;;;;;;5008918;28;1469;-71
2023/10/29 11:32:37;;;;;;;;;;;22.00;67.20;;;;;;5027132;28;1459;-74
2023/10/29 11:35:15;;;;;;;;;;;21.90;67.10;;;;;;5023288;28;1621;-72
2023/10/29 11:37:41;;;;;;;;;;;22.00;67.20;;;;;;5025996;28;1872;-73
2023/10/29 11:40:24;;;;;;;;;;;21.90;67.20;;;;;;5029569;28;1926;-72
2023/10/29 11:42:53;;;;;;;;;;;21.90;67.20;;;;;;5014994;28;1963;-73
2023/10/29 11:45:28;;;;;;;;;;;21.90;67.30;;;;;;5029562;28;1219;-72
2023/10/29 11:48:09;;;;;;;;;;;21.90;67.30;;;;;;5023274;28;848;-72
2023/10/29 11:50:35;;;;;;;;;;;21.90;67.30;;;;;;5026115;28;1375;-72
2023/10/29 11:53:01;;;;;;;;;;;21.90;67.30;;;;;;5025580;28;853;-72
2023/10/29 11:55:26;;;;;;;;;;;21.90;67.30;;;;;;5025837;28;955;-73
2023/10/29 11:57:52;;;;;;;;;;;21.90;67.30;;;;;;5025929;28;947;-73
2023/10/29 12:00:17;;;;;;;;;;;21.90;67.40;;;;;;5007007;28;1370;-72
2023/10/29 12:02:43;;;;;;;;;;;21.90;67.30;;;;;;5027388;28;1973;-73
2023/10/29 12:05:09;;;;;;;;;;;21.90;67.30;;;;;;5025290;28;978;-72
2023/10/29 12:07:35;;;;;;;;;;;21.90;67.40;;;;;;5025378;28;823;-73
2023/10/29 12:10:01;;;;;;;;;;;21.90;67.30;;;;;;5028707;28;1351;-73
2023/10/29 12:12:26;;;;;;;;;;;21.90;67.40;;;;;;5008853;28;1218;-74
2023/10/29 12:14:53;;;;;;;;;;;21.90;67.30;;;;;;5026024;28;1425;-73
2023/10/29 12:17:19;;;;;;;;;;;21.90;67.30;;;;;;5027085;28;1335;-73
2023/10/29 12:19:45;;;;;;;;;;;21.90;67.40;;;;;;5026744;28;1354;-73
2023/10/29 12:22:13;;;;;;;;;;;21.90;67.30;;;;;;5024322;28;1906;-74
2023/10/29 12:24:39;;;;;;;;;;;21.90;67.40;;;;;;5025963;28;1396;-74
2023/10/29 12:27:04;;;;;;;;;;;21.80;67.30;;;;;;5005945;28;1211;-74
2023/10/29 12:29:30;;;;;;;;;;;21.80;67.30;;;;;;5013335;28;1284;-73
2023/10/29 12:31:55;;;;;;;;;;;21.90;67.40;;;;;;5027234;28;1272;-74
2023/10/29 12:34:21;;;;;;;;;;;21.80;67.30;;;;;;5025715;28;1654;-74
2023/10/29 12:36:49;;;;;;;;;;;21.80;67.40;;;;;;5026947;28;1461;-74
2023/10/29 12:39:14;;;;;;;;;;;21.80;67.60;;;;;;5007217;28;2204;-72
2023/10/29 12:41:40;;;;;;;;;;;21.80;67.50;;;;;;5029339;28;1914;-71
2023/10/29 12:44:14;;;;;;;;;;;21.80;67.50;;;;;;5031336;28;1315;-71
2023/10/29 12:46:46;;;;;;;;;;;21.80;67.50;;;;;;4997392;28;1467;-71
2023/10/29 12:49:12;;;;;;;;;;;21.70;67.60;;;;;;5008230;28;1285;-72
2023/10/29 12:51:39;;;;;;;;;;;21.70;67.60;;;;;;5030299;28;1883;-70
2023/10/29 12:54:17;;;;;;;;;;;21.70;67.60;;;;;;5030031;28;1369;-73
2023/10/29 12:56:52;;;;;;;;;;;21.70;67.70;;;;;;5030012;28;1421;-73
2023/10/29 12:59:18;;;;;;;;;;;21.70;67.70;;;;;;5028797;28;1449;-73
2023/10/29 13:01:50;;;;;;;;;;;21.70;67.70;;;;;;5008624;28;1994;-73
2023/10/29 13:04:15;;;;;;;;;;;21.70;67.70;;;;;;5030421;28;1443;-73
2023/10/29 13:06:41;;;;;;;;;;;21.70;67.70;;;;;;5009904;28;2168;-74
2023/10/29 13:09:08;;;;;;;;;;;21.70;67.80;;;;;;5027208;28;1508;-73
2023/10/29 13:11:34;;;;;;;;;;;21.70;68.50;;;;;;5028474;28;1548;-74
2023/10/29 13:13:59;;;;;;;;;;;21.70;69.10;;;;;;5028313;28;1499;-74
2023/10/29 13:16:25;;;;;;;;;;;21.80;70.20;;;;;;5028110;28;1280;-74
2023/10/29 13:18:50;;;;;;;;;;;21.80;70.20;;;;;;5028480;28;2205;-73
2023/10/29 13:21:16;;;;;;;;;;;21.90;70.70;;;;;;5014829;28;1972;-74
2023/10/29 13:23:41;;;;;;;;;;;21.90;71.00;;;;;;5028379;28;2134;-74
2023/10/29 13:26:07;;;;;;;;;;;21.90;71.10;;;;;;5020944;28;1950;-74
2023/10/29 13:28:33;;;;;;;;;;;22.00;71.10;;;;;;5026733;28;2061;-74
2023/10/29 13:30:59;;;;;;;;;;;22.00;71.20;;;;;;5009628;28;1475;-74
2023/10/29 13:33:26;;;;;;;;;;;22.00;71.20;;;;;;5020261;28;2640;-73
2023/10/29 13:35:51;;;;;;;;;;;22.10;71.30;;;;;;5027019;28;2020;-74
2023/10/29 13:38:17;;;;;;;;;;;22.20;71.60;;;;;;5028255;28;1077;-73
2023/10/29 13:40:44;;;;;;;;;;;22.20;71.70;;;;;;5027170;28;2281;-73
2023/10/29 13:43:12;;;;;;;;;;;22.20;71.50;;;;;;4995772;28;1898;-74
2023/10/29 13:45:38;;;;;;;;;;;22.20;71.40;;;;;;5028814;28;1272;-72
2023/10/29 13:48:04;;;;;;;;;;;22.20;71.00;;;;;;5006968;28;1322;-74
2023/10/29 13:50:30;;;;;;;;;;;22.20;71.30;;;;;;4995181;28;1842;-73
2023/10/29 13:52:55;;;;;;;;;;;22.20;71.50;;;;;;5010120;28;2174;-73
2023/10/29 13:55:23;;;;;;;;;;;22.20;71.40;;;;;;5005710;28;2317;-72
2023/10/29 13:57:48;;;;;;;;;;;22.30;71.40;;;;;;5027436;28;1269;-73
2023/10/29 14:00:14;;;;;;;;;;;22.30;71.20;;;;;;5022206;28;1982;-73
2023/10/29 14:02:40;;;;;;;;;;;22.30;71.00;;;;;;5030219;28;1886;-73
2023/10/29 14:05:06;;;;;;;;;;;22.30;71.70;;;;;;5027030;28;1890;-74
2023/10/29 14:07:32;;;;;;;;;;;22.40;71.10;;;;;;5026128;28;2301;-73
2023/10/29 14:09:58;;;;;;;;;;;22.40;71.10;;;;;;5029129;28;2086;-74
2023/10/29 14:12:24;;;;;;;;;;;22.40;71.30;;;;;;5008906;28;1692;-74
2023/10/29 14:14:50;;;;;;;;;;;22.40;71.30;;;;;;5029535;28;1277;-73
2023/10/29 14:17:15;;;;;;;;;;;22.40;71.50;;;;;;5026766;28;1512;-74
2023/10/29 14:19:41;;;;;;;;;;;22.40;71.70;;;;;;5012287;28;1287;-74
2023/10/29 14:22:06;;;;;;;;;;;22.40;71.30;;;;;;5028574;28;1890;-73
2023/10/29 14:24:32;;;;;;;;;;;22.40;70.60;;;;;;5028264;28;1930;-72